createdAt,value
2016-11-30T00:00:34.096Z,29.4
2016-11-30T00:05:38.513Z,29.4
2016-11-30T00:10:42.930Z,29.4
2016-11-30T00:15:47.012Z,29.4
2016-11-30T00:20:51.768Z,29.5
2016-11-30T00:25:55.860Z,29.4
2016-11-30T00:31:00.617Z,29.4
2016-11-30T00:36:04.704Z,29.4
2016-11-30T00:41:09.457Z,29.4
2016-11-30T00:46:13.540Z,29.5
2016-11-30T00:51:17.958Z,29.5
2016-11-30T00:56:22.044Z,29.5
2016-11-30T01:01:26.464Z,29.5
2016-11-30T01:06:30.545Z,29.4
2016-11-30T01:11:34.961Z,29.5
2016-11-30T01:16:39.374Z,29.5
2016-11-30T01:21:43.457Z,29.5
2016-11-30T01:26:47.537Z,29.5
2016-11-30T01:31:51.960Z,29.5
2016-11-30T01:36:56.043Z,29.5
2016-11-30T01:42:00.471Z,29.6
2016-11-30T01:47:04.883Z,29.6
2016-11-30T01:52:08.962Z,29.6
2016-11-30T01:57:13.380Z,29.7
2016-11-30T02:02:17.803Z,29.7
2016-11-30T02:07:21.887Z,29.6
2016-11-30T02:12:25.972Z,29.7
2016-11-30T02:17:30.051Z,29.7
2016-11-30T02:22:34.129Z,29.6
2016-11-30T02:27:38.541Z,29.6
2016-11-30T02:32:42.968Z,29.7
2016-11-30T02:37:47.055Z,29.8
2016-11-30T02:42:51.475Z,29.7
2016-11-30T02:47:56.227Z,29.7
2016-11-30T02:53:00.642Z,29.7
2016-11-30T02:58:05.063Z,29.8
2016-11-30T03:03:09.486Z,29.7
2016-11-30T03:08:13.901Z,29.7
2016-11-30T03:13:17.982Z,29.8
2016-11-30T03:18:22.066Z,29.8
2016-11-30T03:23:26.485Z,29.8
2016-11-30T03:28:31.233Z,29.8
2016-11-30T03:33:35.649Z,29.7
2016-11-30T03:38:39.757Z,29.8
2016-11-30T03:43:43.817Z,29.8
2016-11-30T03:48:48.231Z,29.8
2016-11-30T03:53:52.317Z,29.7
2016-11-30T03:58:56.740Z,29.7
2016-11-30T04:04:00.825Z,29.7
2016-11-30T04:09:04.908Z,29.7
2016-11-30T04:14:08.988Z,29.7
2016-11-30T04:19:13.069Z,29.7
2016-11-30T04:24:17.824Z,29.7
2016-11-30T04:29:21.906Z,29.7
2016-11-30T04:34:26.654Z,29.7
2016-11-30T04:39:31.742Z,29.6
2016-11-30T04:44:35.826Z,29.6
2016-11-30T04:49:39.905Z,29.7
2016-11-30T04:54:44.319Z,29.8
2016-11-30T04:59:49.071Z,29.8
2016-11-30T05:04:53.156Z,29.8
2016-11-30T05:09:57.570Z,29.8
2016-11-30T05:15:01.651Z,29.8
2016-11-30T05:20:06.076Z,29.9
2016-11-30T05:25:10.151Z,29.9
2016-11-30T05:30:14.234Z,29.9
2016-11-30T05:35:18.677Z,29.9
2016-11-30T05:40:22.773Z,30
2016-11-30T05:45:27.191Z,30.1
2016-11-30T05:50:31.282Z,30.2
2016-11-30T05:55:35.370Z,30.5
2016-11-30T06:00:40.127Z,31.9
2016-11-30T06:05:44.202Z,32.6
2016-11-30T06:10:48.621Z,33.3
2016-11-30T06:15:53.033Z,33.9
2016-11-30T06:20:57.457Z,33.6
2016-11-30T06:26:01.874Z,33.2
2016-11-30T06:31:05.957Z,33.7
2016-11-30T06:36:10.051Z,33.8
2016-11-30T06:41:14.465Z,33.5
2016-11-30T06:46:18.554Z,33
2016-11-30T06:51:22.632Z,32.6
2016-11-30T06:56:27.048Z,32.3
2016-11-30T07:01:31.132Z,32.9
2016-11-30T07:06:35.214Z,32.9
2016-11-30T07:11:39.648Z,32.3
2016-11-30T07:16:43.734Z,32.1
2016-11-30T07:21:48.163Z,31.9
2016-11-30T07:26:52.297Z,31.9
2016-11-30T07:31:56.376Z,31.7
2016-11-30T07:37:01.571Z,31.7
2016-11-30T07:42:06.198Z,31.6
2016-11-30T07:47:10.971Z,31.6
2016-11-30T07:52:15.386Z,31.6
2016-11-30T07:57:19.807Z,31.5
2016-11-30T08:02:23.897Z,31.6
2016-11-30T08:07:28.005Z,31.5
2016-11-30T08:12:32.093Z,31.5
2016-11-30T08:17:36.179Z,31.6
2016-11-30T08:22:40.608Z,31.7
2016-11-30T08:27:45.038Z,31.7
2016-11-30T08:32:49.457Z,31.9
2016-11-30T08:37:54.211Z,31.9
2016-11-30T08:42:58.294Z,31.8
2016-11-30T08:48:02.725Z,31.8
2016-11-30T08:53:07.481Z,31.8
2016-11-30T08:58:11.562Z,31.7
2016-11-30T09:03:15.980Z,31.7
2016-11-30T09:08:20.400Z,31.6
2016-11-30T09:13:24.500Z,31.6
2016-11-30T09:18:29.244Z,31.6
2016-11-30T09:23:33.718Z,31.6
2016-11-30T09:28:38.152Z,31.6
2016-11-30T09:33:42.912Z,31.7
2016-11-30T09:38:47.684Z,31.7
2016-11-30T09:43:52.117Z,31.7
2016-11-30T09:48:56.873Z,31.6
2016-11-30T09:54:01.623Z,31.7
2016-11-30T10:04:42.363Z,31.7
2016-11-30T10:10:16.594Z,31.8
2016-11-30T10:15:20.725Z,32.5
2016-11-30T10:20:25.478Z,32.1
2016-11-30T10:25:29.902Z,31.9
2016-11-30T10:30:34.319Z,31.8
2016-11-30T10:35:38.399Z,31.8
2016-11-30T10:40:42.824Z,32.4
2016-11-30T10:45:47.576Z,32.4
2016-11-30T10:50:51.658Z,32.3
2016-11-30T10:55:56.082Z,32.3
2016-11-30T11:01:00.169Z,32.4
2016-11-30T11:06:04.252Z,32.4
2016-11-30T11:11:08.673Z,32.4
2016-11-30T11:16:12.800Z,32.4
2016-11-30T11:21:17.218Z,32.6
2016-11-30T11:26:21.635Z,32.4
2016-11-30T11:31:26.391Z,32.3
2016-11-30T11:36:30.907Z,32.2
2016-11-30T11:41:35.325Z,32.2
2016-11-30T11:46:39.736Z,32.2
2016-11-30T11:51:44.153Z,32.2
2016-11-30T11:56:48.245Z,32.2
2016-11-30T12:01:52.335Z,32.2
2016-11-30T12:06:56.415Z,32.2
2016-11-30T12:12:00.502Z,32.2
2016-11-30T12:17:04.599Z,32.2
2016-11-30T12:22:08.683Z,32.2
2016-11-30T12:27:12.773Z,32.2
2016-11-30T12:32:16.860Z,32.3
2016-11-30T12:37:21.612Z,32.4
2016-11-30T12:42:25.695Z,32.5
2016-11-30T12:47:29.773Z,32.7
2016-11-30T12:52:34.192Z,32.7
2016-11-30T12:57:38.615Z,32.7
2016-11-30T13:02:43.042Z,32.9
2016-11-30T13:07:48.131Z,33
2016-11-30T13:12:52.746Z,33
2016-11-30T13:17:57.899Z,33.1
2016-11-30T13:23:02.731Z,33.1
2016-11-30T13:28:06.871Z,33.3
2016-11-30T13:33:11.303Z,33.3
2016-11-30T13:38:15.732Z,33.3
2016-11-30T13:43:19.816Z,33.4
2016-11-30T13:48:23.894Z,33.6
2016-11-30T13:53:28.308Z,34.1
2016-11-30T13:58:32.394Z,35
2016-11-30T14:03:36.481Z,35.4
2016-11-30T14:08:40.566Z,35.4
2016-11-30T14:13:44.665Z,35.4
2016-11-30T14:18:48.751Z,35.2
2016-11-30T14:23:53.503Z,35.1
2016-11-30T14:28:57.585Z,35
2016-11-30T14:34:01.998Z,35
2016-11-30T14:39:06.082Z,34.9
2016-11-30T14:44:10.834Z,34.9
2016-11-30T14:49:15.250Z,34.8
2016-11-30T14:54:19.336Z,34.7
2016-11-30T14:59:23.423Z,34.7
2016-11-30T15:04:27.839Z,34.7
2016-11-30T15:09:31.963Z,34.8
2016-11-30T15:14:36.583Z,35.5
2016-11-30T15:19:41.022Z,35.5
2016-11-30T15:24:45.799Z,35.3
2016-11-30T15:29:51.102Z,35.2
2016-11-30T15:34:56.402Z,35.4
2016-11-30T15:40:00.489Z,35.4
2016-11-30T15:45:04.912Z,35.6
2016-11-30T15:50:08.999Z,35.7
2016-11-30T15:55:13.421Z,35.4
2016-11-30T16:00:17.508Z,35.3
2016-11-30T16:05:21.949Z,35.3
2016-11-30T16:10:26.050Z,35.4
2016-11-30T16:15:31.142Z,35.2
2016-11-30T16:20:35.566Z,35.1
2016-11-30T16:25:40.319Z,35.1
2016-11-30T16:30:45.409Z,35.1
2016-11-30T16:35:49.835Z,35.2
2016-11-30T16:40:53.916Z,35.1
2016-11-30T16:45:58.009Z,35.3
2016-11-30T16:51:02.112Z,35.2
2016-11-30T16:56:06.534Z,35.2
2016-11-30T17:01:10.620Z,35.2
2016-11-30T17:06:15.040Z,35.3
2016-11-30T17:11:19.459Z,35.3
2016-11-30T17:16:23.545Z,35.5
2016-11-30T17:21:27.625Z,35.6
2016-11-30T17:26:31.707Z,35.5
2016-11-30T17:31:36.460Z,35.4
2016-11-30T17:36:41.220Z,35.4
2016-11-30T17:41:45.975Z,35.3
2016-11-30T17:46:50.065Z,35.3
2016-11-30T17:51:54.145Z,35.2
2016-11-30T17:56:58.909Z,35.1
2016-11-30T18:02:02.998Z,35.1
2016-11-30T18:07:07.765Z,35.2
2016-11-30T18:12:12.180Z,34.9
2016-11-30T18:17:16.615Z,34.7
2016-11-30T18:22:21.044Z,35
2016-11-30T18:27:26.040Z,35
2016-11-30T18:32:31.130Z,35
2016-11-30T18:37:35.212Z,34.9
2016-11-30T18:42:39.965Z,34.9
2016-11-30T18:47:44.041Z,34.9
2016-11-30T18:52:48.790Z,34.9
2016-11-30T18:57:52.900Z,35
2016-11-30T19:02:57.338Z,35.3
2016-11-30T19:08:01.425Z,35.5
2016-11-30T19:13:05.505Z,35.4
2016-11-30T19:18:09.929Z,35.5
2016-11-30T19:23:14.341Z,36
2016-11-30T19:28:19.098Z,36.4
2016-11-30T19:33:23.521Z,36.1
2016-11-30T19:38:27.944Z,36
2016-11-30T19:43:32.371Z,35.9
2016-11-30T19:48:36.801Z,35.9
2016-11-30T19:53:41.225Z,36
2016-11-30T19:58:45.316Z,36
2016-11-30T20:03:49.739Z,36
2016-11-30T20:08:53.823Z,36.1
2016-11-30T20:13:57.909Z,36
2016-11-30T20:19:02.350Z,36.2
2016-11-30T20:24:06.775Z,36.4
2016-11-30T20:29:10.864Z,36.2
2016-11-30T20:34:14.986Z,36.2
2016-11-30T20:39:19.412Z,36.2
2016-11-30T20:44:23.554Z,36.2
2016-11-30T20:49:27.878Z,36.3
2016-11-30T20:54:31.965Z,36.3
2016-11-30T20:59:36.052Z,36.4
2016-11-30T21:04:40.475Z,36.4
2016-11-30T21:09:44.559Z,36.4
2016-11-30T21:14:48.654Z,36.4
2016-11-30T21:19:53.082Z,36.5
2016-11-30T21:24:57.162Z,36.6
2016-11-30T21:30:01.923Z,36.7
2016-11-30T21:35:07.013Z,36.5
2016-11-30T21:40:11.096Z,36.5
2016-11-30T21:45:15.519Z,36.5
2016-11-30T21:50:19.604Z,36.4
2016-11-30T21:55:24.022Z,36.4
2016-11-30T22:00:28.104Z,36.4
2016-11-30T22:05:32.859Z,36.3
2016-11-30T22:10:37.618Z,36.1
2016-11-30T22:15:41.708Z,36.2
2016-11-30T22:20:45.795Z,36.2
2016-11-30T22:25:49.883Z,36.1
2016-11-30T22:30:53.969Z,36
2016-11-30T22:35:58.390Z,36.1
2016-11-30T22:41:02.807Z,36
2016-11-30T22:46:06.910Z,36
2016-11-30T22:51:12.003Z,36
2016-11-30T22:56:16.093Z,36
2016-11-30T23:01:20.851Z,35.9
2016-11-30T23:06:25.276Z,35.9
2016-11-30T23:11:30.032Z,35.9
2016-11-30T23:16:34.114Z,36
2016-11-30T23:21:38.534Z,35.9
2016-11-30T23:26:42.618Z,36
2016-11-30T23:31:46.706Z,35.9
2016-11-30T23:36:51.463Z,36
2016-11-30T23:41:56.233Z,35.9
2016-11-30T23:47:00.661Z,35.9
2016-11-30T23:52:04.748Z,35.9
2016-11-30T23:57:08.840Z,35.9
